sensor_id;sensor_type;location;lat;lon;timestamp;P1;durP1;ratioP1;P2;durP2;ratioP2
22715;SDS011;11525;51.152;4.456;2023-04-25T00:01:20;20.52;;;5.38;;
22715;SDS011;11525;51.152;4.456;2023-04-25T00:03:49;24.70;;;6.55;;
22715;SDS011;11525;51.152;4.456;2023-04-25T00:06:15;12.43;;;4.20;;
22715;SDS011;11525;51.152;4.456;2023-04-25T00:08:42;16.80;;;5.40;;
22715;SDS011;11525;51.152;4.456;2023-04-25T00:11:08;16.52;;;4.50;;
22715;SDS011;11525;51.152;4.456;2023-04-25T00:13:34;14.80;;;3.95;;
22715;SDS011;11525;51.152;4.456;2023-04-25T00:16:00;14.35;;;4.90;;
22715;SDS011;11525;51.152;4.456;2023-04-25T00:18:27;22.00;;;5.78;;
22715;SDS011;11525;51.152;4.456;2023-04-25T00:20:54;12.38;;;4.25;;
22715;SDS011;11525;51.152;4.456;2023-04-25T00:23:20;16.17;;;5.65;;
22715;SDS011;11525;51.152;4.456;2023-04-25T00:25:47;13.60;;;5.18;;
22715;SDS011;11525;51.152;4.456;2023-04-25T00:28:14;15.27;;;4.20;;
22715;SDS011;11525;51.152;4.456;2023-04-25T00:30:40;18.27;;;4.40;;
22715;SDS011;11525;51.152;4.456;2023-04-25T00:33:07;18.58;;;4.28;;
22715;SDS011;11525;51.152;4.456;2023-04-25T00:35:33;15.27;;;4.68;;
22715;SDS011;11525;51.152;4.456;2023-04-25T00:37:59;19.90;;;4.82;;
22715;SDS011;11525;51.152;4.456;2023-04-25T00:40:25;16.95;;;4.45;;
22715;SDS011;11525;51.152;4.456;2023-04-25T00:42:51;19.65;;;4.88;;
22715;SDS011;11525;51.152;4.456;2023-04-25T00:45:18;10.80;;;4.35;;
22715;SDS011;11525;51.152;4.456;2023-04-25T00:47:44;14.52;;;3.53;;
22715;SDS011;11525;51.152;4.456;2023-04-25T00:50:11;12.35;;;4.97;;
22715;SDS011;11525;51.152;4.456;2023-04-25T00:52:40;16.80;;;5.15;;
22715;SDS011;11525;51.152;4.456;2023-04-25T00:55:09;19.50;;;5.05;;
22715;SDS011;11525;51.152;4.456;2023-04-25T00:57:35;14.68;;;4.30;;
22715;SDS011;11525;51.152;4.456;2023-04-25T01:00:03;8.10;;;3.55;;
22715;SDS011;11525;51.152;4.456;2023-04-25T01:02:34;15.98;;;4.38;;
22715;SDS011;11525;51.152;4.456;2023-04-25T01:05:01;16.60;;;4.30;;
22715;SDS011;11525;51.152;4.456;2023-04-25T01:07:27;19.48;;;5.45;;
22715;SDS011;11525;51.152;4.456;2023-04-25T01:09:53;15.18;;;4.47;;
22715;SDS011;11525;51.152;4.456;2023-04-25T01:12:18;14.48;;;4.55;;
22715;SDS011;11525;51.152;4.456;2023-04-25T01:14:44;17.40;;;4.28;;
22715;SDS011;11525;51.152;4.456;2023-04-25T01:17:11;19.13;;;5.55;;
22715;SDS011;11525;51.152;4.456;2023-04-25T01:19:37;12.70;;;3.45;;
22715;SDS011;11525;51.152;4.456;2023-04-25T01:22:03;15.55;;;4.05;;
22715;SDS011;11525;51.152;4.456;2023-04-25T01:24:30;23.48;;;4.28;;
22715;SDS011;11525;51.152;4.456;2023-04-25T01:26:57;17.05;;;4.45;;
22715;SDS011;11525;51.152;4.456;2023-04-25T01:29:25;11.88;;;3.38;;
22715;SDS011;11525;51.152;4.456;2023-04-25T01:31:52;21.88;;;4.97;;
22715;SDS011;11525;51.152;4.456;2023-04-25T01:34:19;20.67;;;5.00;;
22715;SDS011;11525;51.152;4.456;2023-04-25T01:36:46;12.95;;;5.20;;
22715;SDS011;11525;51.152;4.456;2023-04-25T01:39:15;15.43;;;4.80;;
22715;SDS011;11525;51.152;4.456;2023-04-25T01:41:41;15.48;;;4.18;;
22715;SDS011;11525;51.152;4.456;2023-04-25T01:44:07;19.63;;;4.40;;
22715;SDS011;11525;51.152;4.456;2023-04-25T01:46:33;20.17;;;5.07;;
22715;SDS011;11525;51.152;4.456;2023-04-25T01:49:00;14.23;;;4.35;;
22715;SDS011;11525;51.152;4.456;2023-04-25T01:51:26;18.20;;;4.10;;
22715;SDS011;11525;51.152;4.456;2023-04-25T01:53:52;27.38;;;5.05;;
22715;SDS011;11525;51.152;4.456;2023-04-25T01:56:19;16.77;;;5.18;;
22715;SDS011;11525;51.152;4.456;2023-04-25T01:58:45;18.98;;;4.53;;
22715;SDS011;11525;51.152;4.456;2023-04-25T02:01:11;18.55;;;4.80;;
22715;SDS011;11525;51.152;4.456;2023-04-25T02:03:37;20.52;;;6.43;;
22715;SDS011;11525;51.152;4.456;2023-04-25T02:06:03;18.00;;;4.80;;
22715;SDS011;11525;51.152;4.456;2023-04-25T02:08:28;14.40;;;4.30;;
22715;SDS011;11525;51.152;4.456;2023-04-25T02:10:55;16.63;;;4.20;;
22715;SDS011;11525;51.152;4.456;2023-04-25T02:13:21;19.88;;;4.72;;
22715;SDS011;11525;51.152;4.456;2023-04-25T02:15:46;21.38;;;5.53;;
22715;SDS011;11525;51.152;4.456;2023-04-25T02:18:12;25.02;;;5.55;;
22715;SDS011;11525;51.152;4.456;2023-04-25T02:20:41;24.25;;;5.47;;
22715;SDS011;11525;51.152;4.456;2023-04-25T02:23:07;18.70;;;5.15;;
22715;SDS011;11525;51.152;4.456;2023-04-25T02:25:33;21.52;;;5.53;;
22715;SDS011;11525;51.152;4.456;2023-04-25T02:27:59;16.60;;;5.25;;
22715;SDS011;11525;51.152;4.456;2023-04-25T02:30:25;19.35;;;5.55;;
22715;SDS011;11525;51.152;4.456;2023-04-25T02:32:50;16.90;;;5.45;;
22715;SDS011;11525;51.152;4.456;2023-04-25T02:35:16;26.90;;;6.88;;
22715;SDS011;11525;51.152;4.456;2023-04-25T02:37:42;21.30;;;6.05;;
22715;SDS011;11525;51.152;4.456;2023-04-25T02:40:08;17.17;;;5.97;;
22715;SDS011;11525;51.152;4.456;2023-04-25T02:42:35;24.25;;;5.88;;
22715;SDS011;11525;51.152;4.456;2023-04-25T02:45:01;19.38;;;7.07;;
22715;SDS011;11525;51.152;4.456;2023-04-25T02:47:27;17.52;;;6.15;;
22715;SDS011;11525;51.152;4.456;2023-04-25T02:49:53;20.67;;;6.40;;
22715;SDS011;11525;51.152;4.456;2023-04-25T02:52:19;18.10;;;6.40;;
22715;SDS011;11525;51.152;4.456;2023-04-25T02:54:46;21.73;;;6.38;;
22715;SDS011;11525;51.152;4.456;2023-04-25T02:57:12;20.75;;;6.55;;
22715;SDS011;11525;51.152;4.456;2023-04-25T02:59:38;26.55;;;6.82;;
22715;SDS011;11525;51.152;4.456;2023-04-25T03:02:03;25.15;;;7.22;;
22715;SDS011;11525;51.152;4.456;2023-04-25T03:04:29;20.20;;;6.75;;
22715;SDS011;11525;51.152;4.456;2023-04-25T03:06:55;19.95;;;6.47;;
22715;SDS011;11525;51.152;4.456;2023-04-25T03:09:21;21.63;;;6.35;;
22715;SDS011;11525;51.152;4.456;2023-04-25T03:11:46;19.60;;;6.25;;
22715;SDS011;11525;51.152;4.456;2023-04-25T03:14:13;23.48;;;6.35;;
22715;SDS011;11525;51.152;4.456;2023-04-25T03:16:39;25.17;;;6.75;;
22715;SDS011;11525;51.152;4.456;2023-04-25T03:19:05;15.15;;;6.10;;
22715;SDS011;11525;51.152;4.456;2023-04-25T03:21:32;19.88;;;6.85;;
22715;SDS011;11525;51.152;4.456;2023-04-25T03:24:01;23.77;;;7.50;;
22715;SDS011;11525;51.152;4.456;2023-04-25T03:26:28;20.15;;;6.50;;
22715;SDS011;11525;51.152;4.456;2023-04-25T03:28:54;17.55;;;7.03;;
22715;SDS011;11525;51.152;4.456;2023-04-25T03:31:20;17.80;;;6.43;;
22715;SDS011;11525;51.152;4.456;2023-04-25T03:33:47;25.30;;;7.85;;
22715;SDS011;11525;51.152;4.456;2023-04-25T03:36:13;29.75;;;8.35;;
22715;SDS011;11525;51.152;4.456;2023-04-25T03:38:39;26.48;;;7.93;;
22715;SDS011;11525;51.152;4.456;2023-04-25T03:41:06;30.27;;;7.70;;
22715;SDS011;11525;51.152;4.456;2023-04-25T03:43:32;22.95;;;8.30;;
22715;SDS011;11525;51.152;4.456;2023-04-25T03:45:57;25.10;;;7.13;;
22715;SDS011;11525;51.152;4.456;2023-04-25T03:48:23;24.48;;;7.50;;
22715;SDS011;11525;51.152;4.456;2023-04-25T03:50:51;22.35;;;6.95;;
22715;SDS011;11525;51.152;4.456;2023-04-25T03:53:17;29.00;;;7.85;;
22715;SDS011;11525;51.152;4.456;2023-04-25T03:55:43;23.85;;;7.25;;
22715;SDS011;11525;51.152;4.456;2023-04-25T03:58:09;20.73;;;6.70;;
22715;SDS011;11525;51.152;4.456;2023-04-25T04:00:35;21.15;;;6.68;;
22715;SDS011;11525;51.152;4.456;2023-04-25T04:03:01;22.30;;;6.93;;
22715;SDS011;11525;51.152;4.456;2023-04-25T04:05:27;26.52;;;7.10;;
22715;SDS011;11525;51.152;4.456;2023-04-25T04:07:53;25.00;;;7.03;;
22715;SDS011;11525;51.152;4.456;2023-04-25T04:10:21;20.83;;;6.55;;
22715;SDS011;11525;51.152;4.456;2023-04-25T04:12:47;20.75;;;7.15;;
22715;SDS011;11525;51.152;4.456;2023-04-25T04:15:13;23.45;;;7.10;;
22715;SDS011;11525;51.152;4.456;2023-04-25T04:17:38;24.80;;;7.20;;
22715;SDS011;11525;51.152;4.456;2023-04-25T04:20:05;17.55;;;6.55;;
22715;SDS011;11525;51.152;4.456;2023-04-25T04:22:32;24.92;;;6.65;;
22715;SDS011;11525;51.152;4.456;2023-04-25T04:24:58;22.67;;;6.93;;
22715;SDS011;11525;51.152;4.456;2023-04-25T04:27:24;25.00;;;6.25;;
22715;SDS011;11525;51.152;4.456;2023-04-25T04:29:50;20.35;;;6.72;;
22715;SDS011;11525;51.152;4.456;2023-04-25T04:32:18;18.55;;;5.63;;
22715;SDS011;11525;51.152;4.456;2023-04-25T04:34:44;25.05;;;6.65;;
22715;SDS011;11525;51.152;4.456;2023-04-25T04:37:12;16.83;;;7.95;;
22715;SDS011;11525;51.152;4.456;2023-04-25T04:39:38;16.30;;;5.88;;
22715;SDS011;11525;51.152;4.456;2023-04-25T04:42:04;14.15;;;6.35;;
22715;SDS011;11525;51.152;4.456;2023-04-25T04:44:30;16.23;;;6.15;;
22715;SDS011;11525;51.152;4.456;2023-04-25T04:46:59;15.93;;;5.75;;
22715;SDS011;11525;51.152;4.456;2023-04-25T04:49:25;16.83;;;5.57;;
22715;SDS011;11525;51.152;4.456;2023-04-25T04:51:51;11.25;;;5.32;;
22715;SDS011;11525;51.152;4.456;2023-04-25T04:54:17;14.73;;;5.85;;
22715;SDS011;11525;51.152;4.456;2023-04-25T04:56:43;17.25;;;5.70;;
22715;SDS011;11525;51.152;4.456;2023-04-25T04:59:09;20.33;;;6.43;;
22715;SDS011;11525;51.152;4.456;2023-04-25T05:01:36;16.45;;;5.78;;
22715;SDS011;11525;51.152;4.456;2023-04-25T05:04:02;21.08;;;5.03;;
22715;SDS011;11525;51.152;4.456;2023-04-25T05:06:29;14.60;;;5.57;;
22715;SDS011;11525;51.152;4.456;2023-04-25T05:08:56;20.08;;;5.95;;
22715;SDS011;11525;51.152;4.456;2023-04-25T05:11:22;13.68;;;5.28;;
22715;SDS011;11525;51.152;4.456;2023-04-25T05:13:49;21.58;;;6.00;;
22715;SDS011;11525;51.152;4.456;2023-04-25T05:16:17;22.90;;;7.10;;
22715;SDS011;11525;51.152;4.456;2023-04-25T05:18:43;12.70;;;5.47;;
22715;SDS011;11525;51.152;4.456;2023-04-25T05:21:08;13.02;;;4.68;;
22715;SDS011;11525;51.152;4.456;2023-04-25T05:23:34;15.93;;;3.97;;
22715;SDS011;11525;51.152;4.456;2023-04-25T05:26:00;16.08;;;4.50;;
22715;SDS011;11525;51.152;4.456;2023-04-25T05:28:26;15.73;;;5.38;;
22715;SDS011;11525;51.152;4.456;2023-04-25T05:30:52;17.08;;;6.15;;
22715;SDS011;11525;51.152;4.456;2023-04-25T05:33:18;16.60;;;6.82;;
22715;SDS011;11525;51.152;4.456;2023-04-25T05:35:44;14.50;;;5.68;;
22715;SDS011;11525;51.152;4.456;2023-04-25T05:38:10;18.30;;;5.35;;
22715;SDS011;11525;51.152;4.456;2023-04-25T05:40:36;14.90;;;5.10;;
22715;SDS011;11525;51.152;4.456;2023-04-25T05:43:02;14.15;;;5.22;;
22715;SDS011;11525;51.152;4.456;2023-04-25T05:45:27;13.13;;;5.97;;
22715;SDS011;11525;51.152;4.456;2023-04-25T05:47:53;18.75;;;5.18;;
22715;SDS011;11525;51.152;4.456;2023-04-25T05:50:19;14.13;;;5.00;;
22715;SDS011;11525;51.152;4.456;2023-04-25T05:52:45;15.55;;;5.28;;
22715;SDS011;11525;51.152;4.456;2023-04-25T05:55:11;17.40;;;4.97;;
22715;SDS011;11525;51.152;4.456;2023-04-25T05:57:40;13.65;;;5.25;;
22715;SDS011;11525;51.152;4.456;2023-04-25T06:00:08;17.92;;;5.38;;
22715;SDS011;11525;51.152;4.456;2023-04-25T06:02:34;18.20;;;4.45;;
22715;SDS011;11525;51.152;4.456;2023-04-25T06:05:00;13.07;;;5.00;;
22715;SDS011;11525;51.152;4.456;2023-04-25T06:07:28;19.60;;;5.20;;
22715;SDS011;11525;51.152;4.456;2023-04-25T06:09:57;15.18;;;5.35;;
22715;SDS011;11525;51.152;4.456;2023-04-25T06:12:24;13.77;;;5.20;;
22715;SDS011;11525;51.152;4.456;2023-04-25T06:14:50;12.73;;;5.60;;
22715;SDS011;11525;51.152;4.456;2023-04-25T06:17:16;18.02;;;5.30;;
22715;SDS011;11525;51.152;4.456;2023-04-25T06:19:42;20.25;;;6.22;;
22715;SDS011;11525;51.152;4.456;2023-04-25T06:22:07;13.38;;;4.43;;
22715;SDS011;11525;51.152;4.456;2023-04-25T06:24:33;12.93;;;4.57;;
22715;SDS011;11525;51.152;4.456;2023-04-25T06:27:00;11.38;;;4.82;;
22715;SDS011;11525;51.152;4.456;2023-04-25T06:29:26;15.68;;;3.97;;
22715;SDS011;11525;51.152;4.456;2023-04-25T06:31:52;16.25;;;4.05;;
22715;SDS011;11525;51.152;4.456;2023-04-25T06:34:18;11.73;;;3.58;;
22715;SDS011;11525;51.152;4.456;2023-04-25T06:36:44;12.93;;;3.83;;
22715;SDS011;11525;51.152;4.456;2023-04-25T06:39:10;12.43;;;3.78;;
22715;SDS011;11525;51.152;4.456;2023-04-25T06:41:36;12.38;;;3.33;;
22715;SDS011;11525;51.152;4.456;2023-04-25T06:44:03;14.98;;;3.70;;
22715;SDS011;11525;51.152;4.456;2023-04-25T06:46:30;16.50;;;3.75;;
22715;SDS011;11525;51.152;4.456;2023-04-25T06:48:58;14.45;;;4.47;;
22715;SDS011;11525;51.152;4.456;2023-04-25T06:51:24;8.30;;;3.67;;
22715;SDS011;11525;51.152;4.456;2023-04-25T06:53:53;15.45;;;3.85;;
22715;SDS011;11525;51.152;4.456;2023-04-25T06:56:19;14.23;;;3.63;;
22715;SDS011;11525;51.152;4.456;2023-04-25T06:58:46;17.15;;;4.35;;
22715;SDS011;11525;51.152;4.456;2023-04-25T07:01:12;21.08;;;3.92;;
22715;SDS011;11525;51.152;4.456;2023-04-25T07:03:39;8.82;;;3.20;;
22715;SDS011;11525;51.152;4.456;2023-04-25T07:06:05;14.20;;;3.60;;
22715;SDS011;11525;51.152;4.456;2023-04-25T07:08:31;13.70;;;4.10;;
22715;SDS011;11525;51.152;4.456;2023-04-25T07:10:57;9.82;;;3.85;;
22715;SDS011;11525;51.152;4.456;2023-04-25T07:13:23;11.93;;;3.35;;
22715;SDS011;11525;51.152;4.456;2023-04-25T07:15:48;11.98;;;3.35;;
22715;SDS011;11525;51.152;4.456;2023-04-25T07:18:14;9.43;;;3.20;;
22715;SDS011;11525;51.152;4.456;2023-04-25T07:20:41;8.55;;;3.15;;
22715;SDS011;11525;51.152;4.456;2023-04-25T07:23:06;14.00;;;4.28;;
22715;SDS011;11525;51.152;4.456;2023-04-25T07:25:32;13.57;;;3.55;;
22715;SDS011;11525;51.152;4.456;2023-04-25T07:27:58;10.38;;;3.50;;
22715;SDS011;11525;51.152;4.456;2023-04-25T07:30:23;16.13;;;3.22;;
22715;SDS011;11525;51.152;4.456;2023-04-25T07:32:49;14.05;;;3.50;;
22715;SDS011;11525;51.152;4.456;2023-04-25T07:35:16;12.65;;;2.80;;
22715;SDS011;11525;51.152;4.456;2023-04-25T07:37:42;8.15;;;2.95;;
22715;SDS011;11525;51.152;4.456;2023-04-25T07:40:08;10.82;;;2.88;;
22715;SDS011;11525;51.152;4.456;2023-04-25T07:42:34;15.50;;;3.25;;
22715;SDS011;11525;51.152;4.456;2023-04-25T07:45:00;11.20;;;3.47;;
22715;SDS011;11525;51.152;4.456;2023-04-25T07:47:26;13.77;;;3.20;;
22715;SDS011;11525;51.152;4.456;2023-04-25T07:49:52;8.48;;;2.65;;
22715;SDS011;11525;51.152;4.456;2023-04-25T07:52:17;7.18;;;2.42;;
22715;SDS011;11525;51.152;4.456;2023-04-25T07:54:43;9.85;;;2.53;;
22715;SDS011;11525;51.152;4.456;2023-04-25T07:57:09;12.38;;;2.70;;
22715;SDS011;11525;51.152;4.456;2023-04-25T07:59:34;6.85;;;2.40;;
22715;SDS011;11525;51.152;4.456;2023-04-25T08:02:00;9.55;;;2.00;;
22715;SDS011;11525;51.152;4.456;2023-04-25T08:04:27;9.30;;;2.10;;
22715;SDS011;11525;51.152;4.456;2023-04-25T08:06:53;10.52;;;2.22;;
22715;SDS011;11525;51.152;4.456;2023-04-25T08:09:19;9.35;;;2.67;;
22715;SDS011;11525;51.152;4.456;2023-04-25T08:11:45;9.88;;;2.20;;
22715;SDS011;11525;51.152;4.456;2023-04-25T08:14:12;9.05;;;2.72;;
22715;SDS011;11525;51.152;4.456;2023-04-25T08:16:38;11.52;;;2.85;;
22715;SDS011;11525;51.152;4.456;2023-04-25T08:19:04;8.90;;;2.50;;
22715;SDS011;11525;51.152;4.456;2023-04-25T08:21:30;7.05;;;2.42;;
22715;SDS011;11525;51.152;4.456;2023-04-25T08:23:56;9.38;;;2.80;;
22715;SDS011;11525;51.152;4.456;2023-04-25T08:26:23;8.02;;;2.33;;
22715;SDS011;11525;51.152;4.456;2023-04-25T08:28:49;8.27;;;2.10;;
22715;SDS011;11525;51.152;4.456;2023-04-25T08:31:15;5.68;;;2.00;;
22715;SDS011;11525;51.152;4.456;2023-04-25T08:33:41;9.38;;;2.10;;
22715;SDS011;11525;51.152;4.456;2023-04-25T08:36:07;5.75;;;3.08;;
22715;SDS011;11525;51.152;4.456;2023-04-25T08:38:33;6.63;;;2.33;;
22715;SDS011;11525;51.152;4.456;2023-04-25T08:40:59;4.68;;;1.98;;
22715;SDS011;11525;51.152;4.456;2023-04-25T08:43:26;6.40;;;2.30;;
22715;SDS011;11525;51.152;4.456;2023-04-25T08:45:53;6.28;;;1.77;;
22715;SDS011;11525;51.152;4.456;2023-04-25T08:48:26;7.55;;;2.42;;
22715;SDS011;11525;51.152;4.456;2023-04-25T08:50:54;5.20;;;1.75;;
22715;SDS011;11525;51.152;4.456;2023-04-25T08:53:28;8.75;;;2.15;;
22715;SDS011;11525;51.152;4.456;2023-04-25T08:55:55;4.63;;;1.77;;
22715;SDS011;11525;51.152;4.456;2023-04-25T08:58:22;6.68;;;2.40;;
22715;SDS011;11525;51.152;4.456;2023-04-25T09:00:49;5.70;;;1.88;;
22715;SDS011;11525;51.152;4.456;2023-04-25T09:03:16;5.35;;;1.73;;
22715;SDS011;11525;51.152;4.456;2023-04-25T09:05:42;6.10;;;1.65;;
22715;SDS011;11525;51.152;4.456;2023-04-25T09:08:08;4.70;;;1.73;;
22715;SDS011;11525;51.152;4.456;2023-04-25T09:10:34;6.93;;;1.88;;
22715;SDS011;11525;51.152;4.456;2023-04-25T09:15:50;5.15;;;2.33;;
22715;SDS011;11525;51.152;4.456;2023-04-25T09:18:26;3.83;;;1.60;;
22715;SDS011;11525;51.152;4.456;2023-04-25T09:20:55;6.88;;;2.45;;
22715;SDS011;11525;51.152;4.456;2023-04-25T09:23:23;7.80;;;2.03;;
22715;SDS011;11525;51.152;4.456;2023-04-25T09:25:49;7.53;;;2.17;;
22715;SDS011;11525;51.152;4.456;2023-04-25T09:28:16;9.55;;;2.00;;
22715;SDS011;11525;51.152;4.456;2023-04-25T09:30:49;4.13;;;1.75;;
22715;SDS011;11525;51.152;4.456;2023-04-25T09:33:14;7.30;;;1.75;;
22715;SDS011;11525;51.152;4.456;2023-04-25T09:35:41;4.88;;;1.63;;
22715;SDS011;11525;51.152;4.456;2023-04-25T09:40:41;7.57;;;1.70;;
22715;SDS011;11525;51.152;4.456;2023-04-25T09:43:09;6.35;;;1.80;;
22715;SDS011;11525;51.152;4.456;2023-04-25T09:45:41;5.75;;;1.88;;
22715;SDS011;11525;51.152;4.456;2023-04-25T09:48:11;3.47;;;1.67;;
22715;SDS011;11525;51.152;4.456;2023-04-25T09:50:37;3.75;;;1.98;;
22715;SDS011;11525;51.152;4.456;2023-04-25T09:53:04;7.35;;;1.70;;
22715;SDS011;11525;51.152;4.456;2023-04-25T09:55:34;2.60;;;1.45;;
22715;SDS011;11525;51.152;4.456;2023-04-25T09:58:03;4.32;;;1.60;;
22715;SDS011;11525;51.152;4.456;2023-04-25T10:00:32;5.35;;;1.75;;
22715;SDS011;11525;51.152;4.456;2023-04-25T10:02:58;3.75;;;1.67;;
22715;SDS011;11525;51.152;4.456;2023-04-25T10:05:28;5.28;;;2.13;;
22715;SDS011;11525;51.152;4.456;2023-04-25T10:07:56;5.85;;;1.85;;
22715;SDS011;11525;51.152;4.456;2023-04-25T10:10:23;6.75;;;1.90;;
22715;SDS011;11525;51.152;4.456;2023-04-25T10:12:52;6.05;;;1.90;;
22715;SDS011;11525;51.152;4.456;2023-04-25T10:15:19;7.57;;;2.08;;
22715;SDS011;11525;51.152;4.456;2023-04-25T10:17:46;8.65;;;2.50;;
22715;SDS011;11525;51.152;4.456;2023-04-25T10:20:14;11.40;;;1.73;;
22715;SDS011;11525;51.152;4.456;2023-04-25T10:22:42;6.40;;;1.65;;
22715;SDS011;11525;51.152;4.456;2023-04-25T10:25:10;3.28;;;1.83;;
22715;SDS011;11525;51.152;4.456;2023-04-25T10:27:36;8.43;;;1.77;;
22715;SDS011;11525;51.152;4.456;2023-04-25T10:32:31;9.50;;;2.67;;
22715;SDS011;11525;51.152;4.456;2023-04-25T10:34:58;6.85;;;2.10;;
22715;SDS011;11525;51.152;4.456;2023-04-25T10:38:05;6.03;;;1.88;;
22715;SDS011;11525;51.152;4.456;2023-04-25T10:40:34;8.52;;;2.05;;
22715;SDS011;11525;51.152;4.456;2023-04-25T10:45:57;6.18;;;2.03;;
22715;SDS011;11525;51.152;4.456;2023-04-25T10:48:28;4.95;;;2.15;;
22715;SDS011;11525;51.152;4.456;2023-04-25T10:51:07;5.20;;;2.10;;
22715;SDS011;11525;51.152;4.456;2023-04-25T10:53:34;6.07;;;1.83;;
22715;SDS011;11525;51.152;4.456;2023-04-25T10:56:00;4.15;;;2.20;;
22715;SDS011;11525;51.152;4.456;2023-04-25T10:58:34;5.82;;;2.75;;
22715;SDS011;11525;51.152;4.456;2023-04-25T11:01:00;7.50;;;2.20;;
22715;SDS011;11525;51.152;4.456;2023-04-25T11:03:26;3.60;;;2.20;;
22715;SDS011;11525;51.152;4.456;2023-04-25T11:05:52;6.18;;;2.80;;
22715;SDS011;11525;51.152;4.456;2023-04-25T11:08:20;6.65;;;2.20;;
22715;SDS011;11525;51.152;4.456;2023-04-25T11:11:05;7.30;;;2.58;;
22715;SDS011;11525;51.152;4.456;2023-04-25T11:13:30;5.93;;;1.85;;
22715;SDS011;11525;51.152;4.456;2023-04-25T11:15:56;5.40;;;2.15;;
22715;SDS011;11525;51.152;4.456;2023-04-25T11:18:25;7.00;;;1.95;;
22715;SDS011;11525;51.152;4.456;2023-04-25T11:20:52;5.85;;;2.20;;
22715;SDS011;11525;51.152;4.456;2023-04-25T11:23:17;8.20;;;2.47;;
22715;SDS011;11525;51.152;4.456;2023-04-25T11:25:43;23.75;;;3.35;;
22715;SDS011;11525;51.152;4.456;2023-04-25T11:28:09;8.63;;;2.42;;
22715;SDS011;11525;51.152;4.456;2023-04-25T11:30:35;5.40;;;2.10;;
22715;SDS011;11525;51.152;4.456;2023-04-25T11:33:01;8.43;;;2.85;;
22715;SDS011;11525;51.152;4.456;2023-04-25T11:35:28;5.07;;;1.65;;
22715;SDS011;11525;51.152;4.456;2023-04-25T11:37:53;5.90;;;2.03;;
22715;SDS011;11525;51.152;4.456;2023-04-25T11:40:19;4.30;;;1.80;;
22715;SDS011;11525;51.152;4.456;2023-04-25T11:42:46;4.88;;;2.15;;
22715;SDS011;11525;51.152;4.456;2023-04-25T11:45:12;2.53;;;1.35;;
22715;SDS011;11525;51.152;4.456;2023-04-25T11:47:38;6.22;;;1.75;;
22715;SDS011;11525;51.152;4.456;2023-04-25T11:50:05;5.75;;;1.65;;
22715;SDS011;11525;51.152;4.456;2023-04-25T11:52:39;5.00;;;1.90;;
22715;SDS011;11525;51.152;4.456;2023-04-25T11:55:09;5.07;;;1.75;;
22715;SDS011;11525;51.152;4.456;2023-04-25T11:57:44;4.07;;;1.75;;
22715;SDS011;11525;51.152;4.456;2023-04-25T12:02:46;5.07;;;2.10;;
22715;SDS011;11525;51.152;4.456;2023-04-25T12:05:13;5.38;;;1.65;;
22715;SDS011;11525;51.152;4.456;2023-04-25T12:07:42;5.40;;;1.65;;
22715;SDS011;11525;51.152;4.456;2023-04-25T12:10:09;9.48;;;2.20;;
22715;SDS011;11525;51.152;4.456;2023-04-25T12:12:37;4.47;;;1.33;;
22715;SDS011;11525;51.152;4.456;2023-04-25T12:15:10;4.38;;;1.50;;
22715;SDS011;11525;51.152;4.456;2023-04-25T12:17:36;3.92;;;1.67;;
22715;SDS011;11525;51.152;4.456;2023-04-25T12:20:10;4.30;;;1.30;;
22715;SDS011;11525;51.152;4.456;2023-04-25T12:22:39;10.75;;;2.45;;
22715;SDS011;11525;51.152;4.456;2023-04-25T12:25:09;5.63;;;2.00;;
22715;SDS011;11525;51.152;4.456;2023-04-25T12:27:39;4.72;;;2.10;;
22715;SDS011;11525;51.152;4.456;2023-04-25T12:30:07;7.03;;;2.10;;
22715;SDS011;11525;51.152;4.456;2023-04-25T12:32:33;6.68;;;2.28;;
22715;SDS011;11525;51.152;4.456;2023-04-25T12:34:59;7.70;;;2.10;;
22715;SDS011;11525;51.152;4.456;2023-04-25T12:37:24;10.15;;;2.13;;
22715;SDS011;11525;51.152;4.456;2023-04-25T12:39:51;4.47;;;1.65;;
22715;SDS011;11525;51.152;4.456;2023-04-25T12:42:16;6.18;;;1.98;;
22715;SDS011;11525;51.152;4.456;2023-04-25T12:44:42;4.13;;;1.83;;
22715;SDS011;11525;51.152;4.456;2023-04-25T12:47:08;7.85;;;2.55;;
22715;SDS011;11525;51.152;4.456;2023-04-25T12:49:34;2.42;;;1.63;;
22715;SDS011;11525;51.152;4.456;2023-04-25T12:51:59;2.65;;;1.40;;
22715;SDS011;11525;51.152;4.456;2023-04-25T12:54:25;2.75;;;1.60;;
22715;SDS011;11525;51.152;4.456;2023-04-25T12:56:51;3.40;;;1.85;;
22715;SDS011;11525;51.152;4.456;2023-04-25T12:59:17;8.30;;;2.13;;
22715;SDS011;11525;51.152;4.456;2023-04-25T13:01:43;5.85;;;1.88;;
22715;SDS011;11525;51.152;4.456;2023-04-25T13:04:10;4.13;;;1.98;;
22715;SDS011;11525;51.152;4.456;2023-04-25T13:06:36;5.28;;;2.03;;
22715;SDS011;11525;51.152;4.456;2023-04-25T13:09:01;10.85;;;2.78;;
22715;SDS011;11525;51.152;4.456;2023-04-25T13:11:28;5.88;;;1.95;;
22715;SDS011;11525;51.152;4.456;2023-04-25T13:13:54;7.93;;;2.35;;
22715;SDS011;11525;51.152;4.456;2023-04-25T13:16:20;12.85;;;2.10;;
22715;SDS011;11525;51.152;4.456;2023-04-25T13:18:46;13.73;;;2.58;;
22715;SDS011;11525;51.152;4.456;2023-04-25T13:21:12;6.05;;;1.90;;
22715;SDS011;11525;51.152;4.456;2023-04-25T13:23:37;3.28;;;1.83;;
22715;SDS011;11525;51.152;4.456;2023-04-25T13:26:03;5.90;;;1.83;;
22715;SDS011;11525;51.152;4.456;2023-04-25T13:28:29;4.70;;;1.80;;
22715;SDS011;11525;51.152;4.456;2023-04-25T13:30:55;4.72;;;1.80;;
22715;SDS011;11525;51.152;4.456;2023-04-25T13:33:22;5.68;;;1.48;;
22715;SDS011;11525;51.152;4.456;2023-04-25T13:35:48;5.90;;;1.50;;
22715;SDS011;11525;51.152;4.456;2023-04-25T13:38:24;6.40;;;1.77;;
22715;SDS011;11525;51.152;4.456;2023-04-25T13:40:50;5.03;;;1.65;;
22715;SDS011;11525;51.152;4.456;2023-04-25T13:43:20;4.95;;;1.58;;
22715;SDS011;11525;51.152;4.456;2023-04-25T13:45:46;6.38;;;1.80;;
22715;SDS011;11525;51.152;4.456;2023-04-25T13:48:13;5.57;;;1.60;;
22715;SDS011;11525;51.152;4.456;2023-04-25T13:50:38;2.95;;;1.30;;
22715;SDS011;11525;51.152;4.456;2023-04-25T13:53:04;5.28;;;1.38;;
22715;SDS011;11525;51.152;4.456;2023-04-25T13:55:30;9.38;;;1.38;;
22715;SDS011;11525;51.152;4.456;2023-04-25T13:57:56;6.07;;;1.60;;
22715;SDS011;11525;51.152;4.456;2023-04-25T14:00:22;5.97;;;1.80;;
22715;SDS011;11525;51.152;4.456;2023-04-25T14:02:48;3.85;;;2.22;;
22715;SDS011;11525;51.152;4.456;2023-04-25T14:05:14;3.85;;;1.50;;
22715;SDS011;11525;51.152;4.456;2023-04-25T14:07:40;4.50;;;1.58;;
22715;SDS011;11525;51.152;4.456;2023-04-25T14:10:05;2.85;;;1.40;;
22715;SDS011;11525;51.152;4.456;2023-04-25T14:12:32;6.72;;;1.58;;
22715;SDS011;11525;51.152;4.456;2023-04-25T14:14:58;5.82;;;1.45;;
22715;SDS011;11525;51.152;4.456;2023-04-25T14:17:23;5.13;;;1.58;;
22715;SDS011;11525;51.152;4.456;2023-04-25T14:19:50;3.92;;;1.52;;
22715;SDS011;11525;51.152;4.456;2023-04-25T14:22:15;2.13;;;1.35;;
22715;SDS011;11525;51.152;4.456;2023-04-25T14:24:41;3.75;;;1.60;;
22715;SDS011;11525;51.152;4.456;2023-04-25T14:27:07;3.30;;;1.73;;
22715;SDS011;11525;51.152;4.456;2023-04-25T14:29:33;8.68;;;2.05;;
22715;SDS011;11525;51.152;4.456;2023-04-25T14:31:58;6.60;;;2.08;;
22715;SDS011;11525;51.152;4.456;2023-04-25T14:34:25;3.00;;;1.40;;
22715;SDS011;11525;51.152;4.456;2023-04-25T14:36:51;3.58;;;1.50;;
22715;SDS011;11525;51.152;4.456;2023-04-25T14:39:16;4.82;;;1.75;;
22715;SDS011;11525;51.152;4.456;2023-04-25T14:41:43;13.43;;;1.92;;
22715;SDS011;11525;51.152;4.456;2023-04-25T14:44:09;8.73;;;2.08;;
22715;SDS011;11525;51.152;4.456;2023-04-25T14:46:35;4.93;;;1.70;;
22715;SDS011;11525;51.152;4.456;2023-04-25T14:49:01;6.20;;;1.83;;
22715;SDS011;11525;51.152;4.456;2023-04-25T14:51:27;3.03;;;1.70;;